Time;durP1;ratioP1;P1;durP2;ratioP2;P2;SDS_P1;SDS_P2;PMS_P1;PMS_P2;Temp;Humidity;BMP_temperature;BMP_pressure;BME280_temperature;BME280_humidity;BME280_pressure;Samples;Min_cycle;Max_cycle;Signal;HPM_P1;HPM_P2
2023/06/25 00:01:57;;;;;;;6.53;5.32;;;17.70;99.10;;;;;;6233838;28;20045;-80
2023/06/25 00:04:59;;;;;;;8.02;5.13;;;17.70;99.40;;;;;;6231981;28;20528;-80
2023/06/25 00:08:02;;;;;;;9.45;5.82;;;17.60;99.60;;;;;;6231460;28;20045;-81
2023/06/25 00:11:04;;;;;;;6.88;6.22;;;17.60;99.80;;;;;;6230535;28;20045;-80
2023/06/25 00:14:06;;;;;;;5.75;5.22;;;17.50;99.90;;;;;;6222233;28;20062;-80
2023/06/25 00:17:07;;;;;;;6.65;5.80;;;17.40;99.90;;;;;;6228791;28;20050;-81
2023/06/25 00:20:11;;;;;;;7.20;6.05;;;17.30;99.90;;;;;;6232879;28;20053;-81
2023/06/25 00:23:14;;;;;;;6.68;6.07;;;17.30;99.90;;;;;;6230122;28;20046;-80
2023/06/25 00:26:17;;;;;;;7.00;5.82;;;17.30;99.90;;;;;;6227716;28;20048;-79
2023/06/25 00:29:20;;;;;;;8.73;5.50;;;17.20;99.90;;;;;;6227460;28;20425;-78
2023/06/25 00:32:24;;;;;;;6.22;5.63;;;17.30;99.90;;;;;;6230242;28;20056;-80
2023/06/25 00:35:27;;;;;;;7.32;5.28;;;17.20;99.90;;;;;;6253343;28;20095;-81
2023/06/25 00:38:30;;;;;;;6.35;5.70;;;17.20;99.90;;;;;;6233369;28;20050;-81
2023/06/25 00:41:32;;;;;;;6.63;5.45;;;17.20;99.90;;;;;;6235499;28;20056;-80
2023/06/25 00:44:40;;;;;;;5.85;5.25;;;17.10;99.90;;;;;;6228152;28;20402;-80
2023/06/25 00:47:43;;;;;;;7.38;6.57;;;17.00;99.90;;;;;;6230113;28;20499;-79
2023/06/25 00:50:45;;;;;;;8.65;6.55;;;17.00;99.90;;;;;;6222372;28;20046;-81
2023/06/25 00:53:49;;;;;;;6.72;5.82;;;16.90;99.90;;;;;;6229909;28;20045;-79
2023/06/25 00:56:50;;;;;;;6.63;5.70;;;16.90;99.90;;;;;;6231874;28;20070;-80
2023/06/25 00:59:52;;;;;;;9.07;5.95;;;16.80;99.90;;;;;;6229400;28;20057;-80
2023/06/25 01:03:03;;;;;;;7.22;5.95;;;16.80;99.90;;;;;;6228902;28;20045;-80
2023/06/25 01:06:11;;;;;;;6.30;5.32;;;16.80;99.90;;;;;;6231204;28;20061;-81
2023/06/25 01:09:15;;;;;;;6.63;5.93;;;16.70;99.90;;;;;;6222829;28;20050;-79
2023/06/25 01:12:17;;;;;;;6.68;5.57;;;16.60;99.90;;;;;;6228251;28;20056;-79
2023/06/25 01:15:22;;;;;;;15.80;6.85;;;16.50;99.90;;;;;;6212542;28;20539;-79
2023/06/25 01:18:24;;;;;;;6.38;5.63;;;16.50;99.90;;;;;;6204993;28;20063;-79
2023/06/25 01:21:27;;;;;;;6.28;5.68;;;16.50;99.90;;;;;;6205914;28;20638;-80
2023/06/25 01:24:32;;;;;;;6.38;5.25;;;16.50;99.90;;;;;;6203600;28;20062;-81
2023/06/25 01:27:34;;;;;;;6.90;5.68;;;16.40;99.90;;;;;;6200374;28;20161;-80
2023/06/25 01:30:36;;;;;;;5.07;4.57;;;16.40;99.90;;;;;;6202691;28;20398;-81
2023/06/25 01:33:38;;;;;;;8.52;4.93;;;16.30;99.90;;;;;;6203346;28;20058;-81
2023/06/25 01:36:40;;;;;;;8.63;6.57;;;16.30;99.90;;;;;;6201965;28;20060;-82
2023/06/25 01:39:43;;;;;;;6.95;5.75;;;16.30;99.90;;;;;;6201480;28;20050;-82
2023/06/25 01:42:45;;;;;;;6.22;5.10;;;16.20;99.90;;;;;;6215213;28;20042;-80
2023/06/25 01:45:47;;;;;;;6.43;5.38;;;16.20;99.90;;;;;;6228414;28;20045;-81
2023/06/25 01:48:48;;;;;;;12.10;6.63;;;16.10;99.90;;;;;;6228163;28;20061;-81
2023/06/25 01:51:50;;;;;;;6.40;5.68;;;16.10;99.90;;;;;;6230443;28;20057;-80
2023/06/25 01:54:53;;;;;;;6.43;5.55;;;16.10;99.90;;;;;;6230550;28;20042;-81
2023/06/25 01:57:56;;;;;;;6.07;5.28;;;16.00;99.90;;;;;;6229273;28;20137;-82
2023/06/25 02:00:57;;;;;;;8.00;5.18;;;16.00;99.90;;;;;;6230713;28;20412;-80
2023/06/25 02:03:59;;;;;;;6.63;6.00;;;16.00;99.90;;;;;;6230724;28;20048;-81
2023/06/25 02:07:01;;;;;;;7.90;5.68;;;15.90;99.90;;;;;;6231370;28;20069;-79
2023/06/25 02:10:04;;;;;;;5.60;5.10;;;16.00;99.90;;;;;;6230239;28;20056;-79
2023/06/25 02:13:06;;;;;;;7.40;5.72;;;15.90;99.90;;;;;;6232783;28;20148;-80
2023/06/25 02:16:10;;;;;;;7.45;5.28;;;15.90;99.90;;;;;;6232039;28;20055;-80
2023/06/25 02:19:11;;;;;;;6.88;6.18;;;15.90;99.90;;;;;;6232843;28;20393;-80
2023/06/25 02:22:13;;;;;;;6.05;5.32;;;15.90;99.90;;;;;;6231699;28;20046;-79
2023/06/25 02:25:16;;;;;;;6.25;5.65;;;15.90;99.90;;;;;;6227205;28;20134;-79
2023/06/25 02:28:18;;;;;;;6.00;5.40;;;15.90;99.90;;;;;;6227363;28;20057;-79
2023/06/25 02:31:20;;;;;;;5.97;4.97;;;15.80;99.90;;;;;;6226786;28;20046;-80
2023/06/25 02:34:22;;;;;;;9.07;5.40;;;15.80;99.90;;;;;;6227168;28;20433;-79
2023/06/25 02:37:23;;;;;;;8.23;6.50;;;15.60;99.90;;;;;;6226573;28;20050;-80
2023/06/25 02:40:28;;;;;;;7.95;6.10;;;15.70;99.90;;;;;;6227162;28;20046;-79
2023/06/25 02:43:29;;;;;;;6.57;5.85;;;15.60;99.90;;;;;;6227048;28;20042;-79
2023/06/25 02:46:31;;;;;;;5.95;5.35;;;15.60;99.90;;;;;;6227019;28;20458;-79
2023/06/25 02:49:33;;;;;;;6.35;5.40;;;15.50;99.90;;;;;;6227380;28;20072;-79
2023/06/25 02:52:34;;;;;;;6.88;5.78;;;15.50;99.90;;;;;;6226818;28;20057;-79
2023/06/25 02:55:37;;;;;;;7.40;6.20;;;15.60;99.90;;;;;;6228517;28;20053;-79
2023/06/25 02:58:39;;;;;;;7.57;6.28;;;15.70;99.90;;;;;;6234151;28;20053;-78
2023/06/25 03:01:41;;;;;;;7.53;5.82;;;15.80;99.90;;;;;;6236730;28;20065;-79
2023/06/25 03:04:42;;;;;;;11.25;7.18;;;15.70;99.90;;;;;;6228076;28;20042;-80
2023/06/25 03:07:51;;;;;;;8.55;7.65;;;15.60;99.90;;;;;;6216593;28;20050;-79
2023/06/25 03:10:54;;;;;;;7.40;6.47;;;15.60;99.90;;;;;;6202020;28;20065;-80
2023/06/25 03:13:56;;;;;;;7.80;6.18;;;15.70;99.90;;;;;;6204756;28;20046;-79
2023/06/25 03:16:58;;;;;;;7.28;6.57;;;15.70;99.90;;;;;;6205045;28;20050;-80
2023/06/25 03:19:59;;;;;;;6.50;5.90;;;15.60;99.90;;;;;;6202593;28;20057;-79
2023/06/25 03:23:01;;;;;;;6.95;5.80;;;15.60;99.90;;;;;;6202509;28;20540;-78
2023/06/25 03:26:04;;;;;;;8.85;5.20;;;15.50;99.90;;;;;;6203339;28;20169;-79
2023/06/25 03:29:06;;;;;;;7.75;6.03;;;15.50;99.90;;;;;;6202549;28;20058;-79
2023/06/25 03:32:08;;;;;;;6.97;6.28;;;15.60;99.90;;;;;;6201966;28;20061;-78
2023/06/25 03:35:10;;;;;;;6.82;6.20;;;15.60;99.90;;;;;;6201581;28;20805;-79
2023/06/25 03:38:12;;;;;;;7.10;6.43;;;15.70;99.90;;;;;;6200882;28;20061;-79
2023/06/25 03:41:15;;;;;;;7.47;6.10;;;15.70;99.90;;;;;;6201488;28;20058;-78
2023/06/25 03:44:16;;;;;;;6.95;6.32;;;15.70;99.90;;;;;;6201219;28;20053;-78
2023/06/25 03:47:19;;;;;;;6.38;5.75;;;15.70;99.90;;;;;;6200583;28;20050;-78
2023/06/25 03:50:20;;;;;;;7.90;6.55;;;15.60;99.90;;;;;;6199870;28;20053;-77
2023/06/25 03:53:22;;;;;;;7.32;6.63;;;15.70;99.90;;;;;;6201523;28;20057;-78
2023/06/25 03:56:25;;;;;;;7.50;5.43;;;15.80;99.90;;;;;;6200804;28;20058;-78
2023/06/25 03:59:28;;;;;;;5.70;5.10;;;15.90;99.90;;;;;;6200697;28;20449;-78
2023/06/25 04:02:29;;;;;;;7.65;6.95;;;15.90;99.90;;;;;;6200695;28;20047;-78
2023/06/25 04:05:31;;;;;;;7.07;5.72;;;15.90;99.90;;;;;;6200646;28;20050;-78
2023/06/25 04:08:33;;;;;;;6.22;5.63;;;15.90;99.90;;;;;;6200415;28;20641;-78
2023/06/25 04:11:36;;;;;;;6.57;5.88;;;15.80;99.90;;;;;;6200603;28;20528;-79
2023/06/25 04:14:37;;;;;;;8.35;5.80;;;15.90;99.90;;;;;;6200219;28;20046;-79
2023/06/25 04:17:40;;;;;;;7.70;6.10;;;16.00;99.90;;;;;;6201247;28;20042;-79
2023/06/25 04:20:42;;;;;;;6.32;5.70;;;16.40;99.90;;;;;;6201785;28;20053;-79
2023/06/25 04:23:43;;;;;;;8.32;5.70;;;17.20;99.90;;;;;;6201497;28;20053;-77
2023/06/25 04:26:46;;;;;;;7.10;5.05;;;18.00;99.90;;;;;;6201654;28;20054;-79
2023/06/25 04:29:48;;;;;;;6.35;5.55;;;18.80;99.90;;;;;;6200888;28;20054;-79
2023/06/25 04:32:50;;;;;;;4.43;4.03;;;19.30;99.90;;;;;;6201291;28;20061;-79
2023/06/25 04:35:52;;;;;;;7.43;5.45;;;19.70;99.90;;;;;;6200270;28;20105;-80
2023/06/25 04:38:53;;;;;;;4.90;4.40;;;20.20;99.90;;;;;;6200031;28;20046;-79
2023/06/25 04:41:56;;;;;;;5.80;5.10;;;21.00;99.90;;;;;;6199993;28;20046;-79
2023/06/25 04:44:58;;;;;;;5.95;4.85;;;21.70;99.90;;;;;;6200867;28;20050;-79
2023/06/25 04:48:00;;;;;;;5.70;4.68;;;22.50;98.50;;;;;;6200900;28;20065;-78
2023/06/25 04:51:03;;;;;;;5.75;5.25;;;23.30;96.60;;;;;;6203467;28;20053;-79
2023/06/25 04:54:04;;;;;;;6.22;4.45;;;24.00;94.20;;;;;;6214452;28;20943;-77
2023/06/25 04:57:08;;;;;;;6.13;5.53;;;24.70;92.00;;;;;;6233359;28;20050;-76
2023/06/25 05:00:10;;;;;;;6.50;4.28;;;25.40;90.10;;;;;;6242489;28;20080;-76
2023/06/25 05:03:12;;;;;;;4.32;3.83;;;26.20;86.10;;;;;;6210691;28;20057;-76
2023/06/25 05:06:14;;;;;;;4.38;3.97;;;27.20;82.90;;;;;;6202773;28;20056;-78
2023/06/25 05:09:15;;;;;;;6.03;4.20;;;28.50;78.50;;;;;;6210384;28;20049;-78
2023/06/25 05:12:18;;;;;;;6.10;4.15;;;29.40;73.70;;;;;;6212768;28;20057;-78
2023/06/25 05:15:20;;;;;;;3.85;3.47;;;30.00;69.70;;;;;;6209606;28;20050;-79
2023/06/25 05:18:22;;;;;;;4.00;3.70;;;30.60;67.20;;;;;;6209867;28;20042;-79
2023/06/25 05:21:24;;;;;;;5.15;4.40;;;31.10;64.70;;;;;;6210171;28;20065;-78
2023/06/25 05:24:25;;;;;;;4.93;4.43;;;31.50;62.10;;;;;;6211756;28;20046;-78
2023/06/25 05:27:28;;;;;;;6.57;3.60;;;31.90;60.20;;;;;;6210773;28;20065;-78
2023/06/25 05:30:30;;;;;;;4.43;3.72;;;32.20;58.30;;;;;;6211839;28;20045;-79
2023/06/25 05:33:32;;;;;;;5.70;4.32;;;32.40;56.90;;;;;;6215161;28;20057;-78
2023/06/25 05:36:34;;;;;;;4.28;3.88;;;32.60;55.30;;;;;;6211775;28;20061;-78
2023/06/25 05:39:35;;;;;;;4.60;4.20;;;33.10;54.00;;;;;;6215383;28;20050;-79
2023/06/25 05:42:38;;;;;;;4.57;4.18;;;33.10;52.50;;;;;;6215986;28;20057;-77
2023/06/25 05:45:40;;;;;;;4.50;4.07;;;32.30;52.10;;;;;;6214857;28;20042;-77
2023/06/25 05:48:42;;;;;;;4.88;4.40;;;31.20;53.40;;;;;;6216210;28;20054;-78
2023/06/25 05:51:44;;;;;;;4.00;3.70;;;30.40;54.70;;;;;;6214830;28;20465;-77
2023/06/25 05:54:46;;;;;;;7.45;3.78;;;29.70;55.60;;;;;;6214816;28;20054;-79
2023/06/25 05:57:49;;;;;;;4.10;3.80;;;29.00;56.00;;;;;;6215192;28;20054;-77
2023/06/25 06:00:51;;;;;;;4.95;3.92;;;28.40;56.90;;;;;;6215731;28;20180;-76
2023/06/25 06:03:52;;;;;;;5.38;4.88;;;27.90;57.50;;;;;;6217781;28;20057;-80
2023/06/25 06:06:54;;;;;;;4.80;3.83;;;27.30;58.00;;;;;;6217105;28;20045;-80
2023/06/25 06:09:56;;;;;;;6.43;4.38;;;26.90;58.70;;;;;;6210870;28;20038;-79
2023/06/25 06:12:59;;;;;;;4.72;4.22;;;26.40;59.20;;;;;;6214248;28;20050;-80
2023/06/25 06:16:00;;;;;;;5.07;4.57;;;26.00;60.10;;;;;;6212180;28;20042;-79
2023/06/25 06:19:02;;;;;;;4.55;4.15;;;25.70;61.10;;;;;;6214332;28;20512;-79
2023/06/25 06:22:04;;;;;;;5.03;4.45;;;25.50;62.50;;;;;;6215199;28;20505;-81
2023/06/25 06:25:07;;;;;;;4.70;3.88;;;25.30;62.10;;;;;;6216059;28;20485;-80
2023/06/25 06:28:10;;;;;;;4.18;3.75;;;25.10;62.50;;;;;;6216321;28;20046;-81
2023/06/25 06:31:11;;;;;;;4.80;4.40;;;25.00;62.90;;;;;;6215494;28;20046;-82
2023/06/25 06:34:14;;;;;;;4.85;4.25;;;25.00;63.50;;;;;;6214795;28;20053;-80
2023/06/25 06:37:16;;;;;;;6.45;5.45;;;25.00;63.50;;;;;;6214285;28;20057;-81
2023/06/25 06:40:17;;;;;;;14.02;5.60;;;24.90;63.50;;;;;;6214335;28;20102;-78
2023/06/25 06:43:20;;;;;;;6.10;4.20;;;24.80;63.90;;;;;;6214933;28;20366;-81
2023/06/25 06:46:22;;;;;;;4.60;4.13;;;24.80;64.10;;;;;;6217011;28;20042;-81
2023/06/25 06:49:24;;;;;;;6.13;5.53;;;24.90;64.50;;;;;;6215990;28;20974;-81
2023/06/25 06:52:26;;;;;;;6.95;4.85;;;24.90;64.60;;;;;;6213673;28;20065;-81
2023/06/25 06:55:28;;;;;;;5.68;5.18;;;25.00;65.10;;;;;;6213058;28;20398;-80
2023/06/25 06:58:31;;;;;;;4.55;4.15;;;25.10;65.00;;;;;;6210971;28;20524;-81
2023/06/25 07:01:33;;;;;;;5.43;4.50;;;25.20;65.00;;;;;;6213417;28;20053;-79
2023/06/25 07:04:35;;;;;;;4.60;4.13;;;25.30;64.60;;;;;;6213839;28;20049;-80
2023/06/25 07:07:37;;;;;;;6.75;4.80;;;25.50;64.60;;;;;;6208512;28;20042;-80
2023/06/25 07:10:38;;;;;;;5.22;4.72;;;25.60;64.40;;;;;;6209070;28;20054;-80
2023/06/25 07:13:41;;;;;;;6.45;4.95;;;25.70;64.50;;;;;;6209255;28;20513;-79
2023/06/25 07:16:44;;;;;;;6.55;4.60;;;25.70;64.50;;;;;;6211943;28;20058;-80
2023/06/25 07:19:46;;;;;;;4.60;4.20;;;25.70;64.40;;;;;;6215655;28;20125;-79
2023/06/25 07:22:47;;;;;;;4.68;4.28;;;25.70;64.50;;;;;;6211838;28;20045;-79
2023/06/25 07:25:49;;;;;;;5.30;4.28;;;25.80;64.60;;;;;;6212621;28;20057;-80
2023/06/25 07:28:52;;;;;;;5.85;5.35;;;26.00;64.60;;;;;;6212901;28;20062;-79
2023/06/25 07:31:54;;;;;;;4.85;4.30;;;26.30;64.30;;;;;;6221101;28;20046;-80
2023/06/25 07:34:56;;;;;;;5.78;4.80;;;26.50;64.20;;;;;;6215908;28;20046;-80
2023/06/25 07:37:58;;;;;;;10.23;5.60;;;26.60;63.90;;;;;;6211870;28;20046;-80
2023/06/25 07:41:00;;;;;;;5.43;4.30;;;26.80;64.30;;;;;;6213299;28;20098;-80
2023/06/25 07:44:03;;;;;;;5.07;4.63;;;27.10;63.50;;;;;;6213653;28;20114;-80
2023/06/25 07:47:05;;;;;;;5.53;4.93;;;27.20;62.60;;;;;;6211354;28;20378;-80
2023/06/25 07:50:08;;;;;;;6.45;5.85;;;27.20;62.20;;;;;;6213502;28;20157;-80
2023/06/25 07:53:10;;;;;;;7.47;4.45;;;27.20;62.60;;;;;;6210052;28;20421;-79
2023/06/25 07:56:11;;;;;;;4.85;4.35;;;27.50;62.60;;;;;;6210282;28;21702;-80
2023/06/25 07:59:15;;;;;;;5.32;4.20;;;27.90;61.60;;;;;;6213847;28;20046;-80
2023/06/25 08:02:17;;;;;;;5.85;5.25;;;28.10;61.10;;;;;;6211838;28;20080;-81
2023/06/25 08:05:19;;;;;;;4.95;4.45;;;28.20;60.40;;;;;;6210647;28;20050;-80
2023/06/25 08:08:24;;;;;;;5.18;4.68;;;28.20;60.20;;;;;;6212269;28;20054;-80
2023/06/25 08:11:26;;;;;;;4.57;4.18;;;28.10;59.40;;;;;;6222351;28;20054;-80
2023/06/25 08:14:29;;;;;;;4.68;4.03;;;28.20;59.10;;;;;;6221027;28;20135;-80
2023/06/25 08:17:30;;;;;;;5.10;4.40;;;28.30;58.90;;;;;;6217164;28;20453;-80
2023/06/25 08:20:32;;;;;;;5.35;4.80;;;28.40;58.10;;;;;;6218839;28;20058;-79
2023/06/25 08:23:34;;;;;;;5.45;4.88;;;28.60;57.80;;;;;;6218747;28;20054;-80
2023/06/25 08:26:35;;;;;;;5.28;4.78;;;28.80;57.30;;;;;;6217707;28;20049;-79
2023/06/25 08:29:38;;;;;;;5.85;5.32;;;29.00;56.80;;;;;;6218392;28;20057;-79
2023/06/25 08:32:40;;;;;;;4.88;4.38;;;29.00;56.40;;;;;;6218010;28;20058;-79
2023/06/25 08:35:42;;;;;;;5.60;5.00;;;28.90;55.90;;;;;;6218707;28;20057;-80
2023/06/25 08:38:43;;;;;;;4.75;4.35;;;28.90;56.30;;;;;;6213534;28;20069;-80
2023/06/25 08:41:45;;;;;;;5.03;4.57;;;29.20;55.80;;;;;;6214934;28;20061;-79
2023/06/25 08:44:48;;;;;;;5.13;4.10;;;29.40;54.60;;;;;;6214931;28;20390;-80
2023/06/25 08:47:55;;;;;;;5.30;4.80;;;29.40;54.30;;;;;;6214013;28;20043;-81
2023/06/25 08:50:58;;;;;;;5.10;4.60;;;29.60;53.90;;;;;;6206623;28;20066;-81
2023/06/25 08:54:00;;;;;;;5.20;4.70;;;29.80;53.60;;;;;;6210407;28;20064;-80
2023/06/25 08:57:02;;;;;;;5.85;4.75;;;29.90;52.70;;;;;;6210127;28;20052;-79
2023/06/25 09:00:07;;;;;;;5.68;4.55;;;30.10;52.50;;;;;;6204923;28;20046;-78
2023/06/25 09:03:09;;;;;;;5.10;4.53;;;30.40;51.70;;;;;;6209102;28;20121;-80
2023/06/25 09:06:15;;;;;;;5.70;4.40;;;30.50;50.20;;;;;;6210732;28;21886;-80
2023/06/25 09:09:16;;;;;;;4.80;4.28;;;30.40;49.30;;;;;;6209161;28;20060;-80
2023/06/25 09:12:23;;;;;;;5.82;5.30;;;30.30;48.80;;;;;;6209660;28;20515;-79
2023/06/25 09:15:26;;;;;;;5.53;5.05;;;30.30;48.30;;;;;;6210372;28;20083;-79
2023/06/25 09:18:29;;;;;;;6.55;4.70;;;30.40;47.90;;;;;;6210582;28;20057;-80
2023/06/25 09:21:37;;;;;;;5.35;4.70;;;30.40;47.90;;;;;;6209233;28;20096;-80
2023/06/25 09:24:43;;;;;;;6.07;5.38;;;30.40;47.90;;;;;;6211652;28;20057;-79
2023/06/25 09:27:45;;;;;;;6.20;5.60;;;30.60;47.40;;;;;;6209418;28;20038;-79
2023/06/25 09:30:48;;;;;;;9.80;4.88;;;30.90;46.50;;;;;;6211355;28;20042;-78
2023/06/25 09:33:51;;;;;;;4.80;4.30;;;30.90;46.20;;;;;;6210727;28;20069;-78
2023/06/25 09:36:53;;;;;;;4.95;4.45;;;30.90;46.30;;;;;;6211524;28;20090;-78
2023/06/25 09:39:55;;;;;;;7.07;5.75;;;31.30;45.70;;;;;;6209977;28;20540;-77
2023/06/25 09:42:57;;;;;;;5.70;5.20;;;31.80;44.50;;;;;;6210284;28;20051;-80
2023/06/25 09:46:03;;;;;;;5.28;4.57;;;31.80;44.30;;;;;;6211095;28;20050;-80
2023/06/25 09:49:06;;;;;;;8.13;4.80;;;32.00;43.40;;;;;;6210986;28;20416;-77
2023/06/25 09:52:09;;;;;;;4.80;4.35;;;32.60;43.30;;;;;;6211290;28;20129;-78
2023/06/25 09:55:12;;;;;;;6.38;4.53;;;33.10;40.90;;;;;;6210411;28;20042;-79
2023/06/25 09:58:15;;;;;;;5.20;4.70;;;33.20;40.50;;;;;;6207147;28;20053;-78
2023/06/25 10:01:18;;;;;;;6.35;5.40;;;33.40;40.30;;;;;;6209822;28;20493;-79
2023/06/25 10:04:20;;;;;;;6.80;3.85;;;33.40;39.60;;;;;;6212215;28;20049;-78
2023/06/25 10:07:24;;;;;;;4.95;4.55;;;33.50;39.20;;;;;;6211073;28;20041;-78
2023/06/25 10:10:28;;;;;;;5.03;3.80;;;33.50;38.70;;;;;;6209665;28;20620;-79
2023/06/25 10:13:30;;;;;;;4.93;4.53;;;33.70;38.60;;;;;;6215794;28;20054;-78
2023/06/25 10:16:33;;;;;;;6.70;5.75;;;33.80;38.00;;;;;;6217157;28;20061;-79
2023/06/25 10:19:35;;;;;;;4.65;4.15;;;34.10;37.60;;;;;;6216771;28;20049;-79
2023/06/25 10:22:38;;;;;;;4.70;4.25;;;33.70;37.00;;;;;;6216163;28;20054;-80
2023/06/25 10:25:51;;;;;;;5.63;3.67;;;33.30;37.40;;;;;;6214331;28;20052;-80
2023/06/25 10:28:53;;;;;;;5.43;4.30;;;33.10;38.00;;;;;;6218523;28;20045;-79
2023/06/25 10:32:02;;;;;;;6.15;4.75;;;33.00;38.10;;;;;;6216391;28;20054;-80
2023/06/25 10:35:04;;;;;;;7.85;5.55;;;33.40;37.50;;;;;;6215993;28;20046;-79
2023/06/25 10:38:06;;;;;;;5.15;4.65;;;33.60;37.50;;;;;;6216346;28;20050;-79
2023/06/25 10:41:08;;;;;;;5.68;5.18;;;33.90;37.90;;;;;;6212990;28;20128;-79
2023/06/25 10:44:10;;;;;;;5.97;5.38;;;33.80;37.30;;;;;;6216262;28;20138;-80
2023/06/25 10:47:13;;;;;;;5.22;4.60;;;33.90;37.00;;;;;;6214703;28;20049;-79
2023/06/25 10:50:17;;;;;;;4.28;3.45;;;33.80;36.60;;;;;;6217988;28;20061;-81
2023/06/25 10:53:20;;;;;;;4.65;4.25;;;33.70;36.60;;;;;;6212607;28;20417;-80
2023/06/25 10:56:22;;;;;;;5.00;4.55;;;33.60;36.70;;;;;;6215572;28;20049;-80
2023/06/25 10:59:24;;;;;;;5.20;4.70;;;33.50;36.90;;;;;;6216373;28;20050;-80
2023/06/25 11:02:32;;;;;;;5.13;4.63;;;33.50;37.00;;;;;;6215832;28;20046;-79
2023/06/25 11:05:36;;;;;;;4.50;4.03;;;33.50;36.70;;;;;;6219052;28;20050;-82
2023/06/25 11:08:41;;;;;;;6.07;4.35;;;33.50;36.40;;;;;;6220387;28;20057;-80
2023/06/25 11:11:43;;;;;;;7.03;5.45;;;33.50;36.50;;;;;;6216125;28;20432;-80
2023/06/25 11:14:45;;;;;;;5.05;4.57;;;33.80;36.10;;;;;;6219070;28;20053;-80
2023/06/25 11:17:51;;;;;;;4.75;4.28;;;33.70;36.10;;;;;;6217116;28;20088;-80
2023/06/25 11:20:53;;;;;;;6.13;5.15;;;33.70;36.10;;;;;;6218529;28;20061;-80
2023/06/25 11:23:55;;;;;;;9.68;5.80;;;33.70;36.10;;;;;;6217322;28;20133;-81
2023/06/25 11:26:58;;;;;;;5.40;4.90;;;33.90;35.90;;;;;;6210992;28;20052;-79
2023/06/25 11:30:03;;;;;;;6.10;5.40;;;34.10;35.90;;;;;;6211427;28;20096;-76
2023/06/25 11:33:10;;;;;;;5.40;4.90;;;34.30;35.40;;;;;;6207663;28;20084;-76
2023/06/25 11:36:13;;;;;;;5.82;5.28;;;34.50;35.40;;;;;;6212351;28;20046;-77
2023/06/25 11:39:15;;;;;;;5.88;5.38;;;34.30;35.50;;;;;;6208232;28;20058;-79
2023/06/25 11:42:19;;;;;;;5.75;5.25;;;34.10;35.80;;;;;;6212473;28;20054;-77
2023/06/25 11:45:21;;;;;;;5.90;5.20;;;34.00;35.60;;;;;;6208784;28;20532;-78
2023/06/25 11:48:24;;;;;;;7.20;5.53;;;34.00;36.00;;;;;;6208479;28;20571;-77
2023/06/25 11:51:26;;;;;;;5.05;4.55;;;34.20;35.70;;;;;;6209770;28;20057;-76
2023/06/25 11:54:28;;;;;;;6.97;5.38;;;34.30;35.10;;;;;;6207806;28;20038;-77
2023/06/25 11:57:30;;;;;;;7.20;6.00;;;34.50;35.30;;;;;;6208606;28;20191;-77
2023/06/25 12:00:31;;;;;;;6.40;5.38;;;34.90;34.40;;;;;;6211012;28;20054;-78
2023/06/25 12:03:34;;;;;;;6.72;6.10;;;34.90;34.30;;;;;;6208298;28;20386;-77
2023/06/25 12:06:36;;;;;;;6.18;5.57;;;34.80;34.30;;;;;;6209955;28;20058;-78
2023/06/25 12:09:38;;;;;;;5.15;4.65;;;34.90;34.50;;;;;;6209798;28;20472;-78
2023/06/25 12:12:39;;;;;;;6.45;5.80;;;35.30;34.30;;;;;;6207437;28;20073;-77
2023/06/25 12:15:41;;;;;;;6.60;5.68;;;35.10;34.00;;;;;;6209037;28;20109;-78
2023/06/25 12:18:44;;;;;;;6.38;5.55;;;34.90;33.90;;;;;;6207204;28;20054;-78
2023/06/25 12:21:46;;;;;;;7.82;6.13;;;35.00;33.70;;;;;;6207819;28;20057;-77
2023/06/25 12:24:47;;;;;;;6.45;5.13;;;34.90;33.80;;;;;;6211303;28;20041;-77
2023/06/25 12:27:49;;;;;;;7.57;5.40;;;34.90;33.90;;;;;;6208732;28;20057;-78
2023/06/25 12:30:51;;;;;;;6.97;5.93;;;35.00;33.60;;;;;;6209254;28;20071;-79
2023/06/25 12:33:54;;;;;;;7.38;6.50;;;34.50;33.20;;;;;;6208218;28;20051;-78
2023/06/25 12:36:55;;;;;;;6.57;5.88;;;33.90;33.70;;;;;;6210172;28;20057;-78
2023/06/25 12:39:57;;;;;;;6.32;5.72;;;33.80;34.10;;;;;;6209894;28;20520;-78
2023/06/25 12:42:59;;;;;;;6.72;5.80;;;34.00;34.80;;;;;;6209603;28;20049;-78
2023/06/25 12:46:02;;;;;;;8.52;6.50;;;34.20;33.90;;;;;;6208546;28;20050;-78
2023/06/25 12:49:05;;;;;;;5.68;5.13;;;34.20;34.10;;;;;;6209457;28;20136;-78
2023/06/25 12:52:08;;;;;;;6.00;5.40;;;34.10;33.80;;;;;;6205862;28;20052;-77
2023/06/25 12:55:10;;;;;;;6.78;5.72;;;34.10;34.30;;;;;;6209392;28;20509;-78
2023/06/25 12:58:11;;;;;;;7.28;5.95;;;34.30;33.60;;;;;;6207791;28;20045;-78
2023/06/25 13:01:14;;;;;;;6.93;5.88;;;34.20;33.80;;;;;;6210152;28;20041;-79
2023/06/25 13:04:17;;;;;;;6.32;5.72;;;34.50;34.10;;;;;;6210979;28;20389;-78
2023/06/25 13:07:18;;;;;;;7.40;6.70;;;35.00;33.70;;;;;;6208439;28;20046;-78
2023/06/25 13:10:20;;;;;;;5.80;5.22;;;34.90;33.40;;;;;;6209969;28;20481;-78
2023/06/25 13:13:22;;;;;;;7.30;6.60;;;35.00;33.30;;;;;;6211130;28;20054;-78
2023/06/25 13:16:23;;;;;;;6.57;5.97;;;35.20;33.10;;;;;;6211044;28;20046;-78
2023/06/25 13:19:27;;;;;;;6.55;5.93;;;35.40;33.10;;;;;;6212137;28;20101;-79
2023/06/25 13:22:28;;;;;;;7.00;6.30;;;35.20;32.50;;;;;;6209392;28;20054;-76
2023/06/25 13:25:30;;;;;;;6.72;6.15;;;35.00;33.00;;;;;;6206777;28;20073;-78
2023/06/25 13:28:32;;;;;;;6.68;5.75;;;35.10;32.90;;;;;;6214458;28;20050;-79
2023/06/25 13:31:33;;;;;;;6.72;6.10;;;35.10;32.80;;;;;;6211562;28;20489;-80
2023/06/25 13:34:36;;;;;;;6.60;6.00;;;35.10;32.60;;;;;;6211255;28;20054;-78
2023/06/25 13:37:38;;;;;;;7.13;6.15;;;35.00;32.70;;;;;;6213788;28;20673;-79
2023/06/25 13:40:40;;;;;;;5.35;4.85;;;34.70;32.60;;;;;;6214726;28;20054;-78
2023/06/25 13:43:43;;;;;;;7.60;6.05;;;34.80;32.90;;;;;;6214629;28;20053;-79
2023/06/25 13:46:45;;;;;;;7.30;6.60;;;34.70;33.50;;;;;;6216258;28;20053;-79
2023/06/25 13:49:48;;;;;;;6.57;5.97;;;34.90;32.80;;;;;;6219216;28;20067;-80
2023/06/25 13:52:50;;;;;;;8.32;6.97;;;34.90;32.50;;;;;;6220113;28;20057;-78
2023/06/25 13:55:52;;;;;;;7.35;6.53;;;34.80;33.00;;;;;;6219232;28;20101;-79
2023/06/25 13:58:54;;;;;;;6.63;5.63;;;35.10;33.00;;;;;;6218172;28;20045;-78
2023/06/25 14:01:56;;;;;;;6.57;5.93;;;35.40;32.50;;;;;;6218069;28;20061;-79
2023/06/25 14:04:59;;;;;;;6.65;6.00;;;35.50;32.50;;;;;;6210262;28;20060;-79
2023/06/25 14:08:00;;;;;;;7.35;5.30;;;35.70;32.20;;;;;;6214932;28;20049;-78
2023/06/25 14:11:02;;;;;;;9.95;5.32;;;35.40;31.80;;;;;;6215226;28;20038;-79
2023/06/25 14:14:04;;;;;;;6.65;5.88;;;35.10;32.00;;;;;;6215319;28;20050;-80
2023/06/25 14:17:06;;;;;;;8.00;5.50;;;34.90;31.90;;;;;;6217977;28;20618;-80
2023/06/25 14:20:09;;;;;;;6.22;5.70;;;34.70;32.20;;;;;;6223630;28;20054;-79
2023/06/25 14:23:11;;;;;;;7.18;6.53;;;34.60;32.40;;;;;;6223610;28;20050;-80
2023/06/25 14:26:12;;;;;;;6.85;6.15;;;34.60;32.30;;;;;;6224494;28;20042;-79
2023/06/25 14:29:14;;;;;;;6.35;5.72;;;34.40;32.50;;;;;;6220955;28;20404;-80
2023/06/25 14:32:16;;;;;;;7.63;5.88;;;34.40;32.60;;;;;;6223406;28;20054;-79
2023/06/25 14:35:19;;;;;;;6.95;6.20;;;34.40;32.70;;;;;;6222512;28;20045;-78
2023/06/25 14:38:21;;;;;;;8.00;5.93;;;34.30;32.30;;;;;;6219245;28;20049;-79
2023/06/25 14:41:22;;;;;;;8.05;6.05;;;34.30;32.60;;;;;;6215713;28;20053;-78
2023/06/25 14:44:24;;;;;;;6.85;6.15;;;34.70;32.60;;;;;;6221656;28;20054;-79
2023/06/25 14:47:26;;;;;;;7.80;6.78;;;34.90;32.40;;;;;;6213262;28;20070;-78
2023/06/25 14:50:29;;;;;;;6.07;5.47;;;35.00;32.40;;;;;;6216499;28;20049;-79
2023/06/25 14:53:34;;;;;;;10.23;5.22;;;35.10;32.30;;;;;;6213110;28;20042;-80
2023/06/25 14:56:35;;;;;;;6.28;5.68;;;35.50;32.20;;;;;;6217664;28;20041;-80
2023/06/25 14:59:37;;;;;;;9.77;6.20;;;35.90;31.90;;;;;;6213071;28;20065;-79
2023/06/25 15:02:39;;;;;;;6.38;5.78;;;35.90;31.50;;;;;;6215451;28;20489;-80
2023/06/25 15:05:42;;;;;;;7.57;6.88;;;35.90;31.50;;;;;;6215832;28;20309;-80
2023/06/25 15:08:44;;;;;;;10.00;5.80;;;35.80;31.40;;;;;;6218465;28;20667;-79
2023/06/25 15:11:45;;;;;;;6.95;6.07;;;35.80;31.60;;;;;;6218724;28;20513;-79
2023/06/25 15:14:47;;;;;;;9.07;6.15;;;35.80;31.30;;;;;;6213351;28;20050;-78
2023/06/25 15:17:49;;;;;;;6.95;6.25;;;35.60;31.40;;;;;;6212004;28;20053;-79
2023/06/25 15:20:52;;;;;;;8.93;5.78;;;35.60;31.90;;;;;;6211252;28;20061;-80
2023/06/25 15:23:54;;;;;;;6.28;5.63;;;35.70;31.60;;;;;;6214342;28;20049;-78
2023/06/25 15:26:55;;;;;;;7.05;6.05;;;35.50;31.80;;;;;;6215394;28;20034;-79
2023/06/25 15:29:57;;;;;;;6.25;5.65;;;35.50;31.60;;;;;;6214631;28;20041;-80
2023/06/25 15:32:58;;;;;;;7.47;6.78;;;35.70;31.80;;;;;;6211403;28;20053;-78
2023/06/25 15:36:02;;;;;;;6.00;5.50;;;35.60;31.90;;;;;;6210720;28;20068;-79
2023/06/25 15:39:05;;;;;;;8.45;6.35;;;35.50;32.00;;;;;;6213891;28;20508;-78
2023/06/25 15:42:06;;;;;;;7.15;5.25;;;35.40;32.20;;;;;;6215266;28;20046;-78
2023/06/25 15:45:09;;;;;;;6.15;5.45;;;35.50;32.10;;;;;;6213292;28;20046;-79
2023/06/25 15:48:11;;;;;;;7.57;6.88;;;35.60;32.00;;;;;;6213654;28;20045;-79